Dillman, Indiana
Current Conditions -  °F | °C
As of 8:55 AM on Monday 24 Nov 2014 (Local Time) from KHHG Reporting Station
Overcast Overcast  
Wind Chill: 55°   Ceiling: 3200
Heat Index: 55°   Visibility: 10mi
Dew Point: 52°   Wind: 12mph
Humidity: 92%   Direction: 210°SSW
Pressure: 29.14"   Gusts: 18mph
Location:  40.6897°N, 85.3916°W
Report Text: KHHG 241355Z AUTO 21010G16KT 170V230 10SM SCT020 BKN032 OVC070 13/11 A2914 RMK AO2 T01250113
Loading
Personal Weather Stations






























Interactive Weather Map New forecast layout! Learn more

10-Day Weather Forecast

Advertisements
Track Severe Weather on mobile